| time (UTC) | temp F | wind direction | speed MPH | gust MPH | rain 1hr in | rain 24hr in | rain mn in | humidity % | barometer mb |
| 20260507003514 | 71 | 238 | 1.0 | 1.0 | 0.00 | 0.00 | 0.00 | 58 | 1007.7 |
| 20260507002014 | 71 | 146 | 3.0 | 3.0 | 0.00 | 0.00 | 0.00 | 59 | 1007.6 |
| 20260507000513 | 73 | 213 | 1.0 | 2.0 | 0.00 | 0.00 | 0.00 | 56 | 1007.5 |
| 20260506235014 | 73 | 196 | 1.0 | 1.0 | 0.00 | 0.00 | 0.00 | 56 | 1007.6 |
| 20260506233513 | 73 | 283 | 1.0 | 2.0 | 0.00 | 0.00 | 0.00 | 56 | 1007.7 |
| 20260506232014 | 74 | 228 | 1.0 | 1.0 | 0.00 | 0.00 | 0.00 | 56 | 1007.6 |
| 20260506230514 | 75 | 123 | 3.0 | 3.0 | 0.00 | 0.00 | 0.00 | 54 | 1007.6 |
| 20260506225014 | 75 | 131 | 2.0 | 2.0 | 0.00 | 0.00 | 0.00 | 55 | 1007.5 |
| 20260506223514 | 77 | 201 | 2.0 | 2.0 | 0.00 | 0.00 | 0.00 | 53 | 1007.7 |
| 20260506222014 | 77 | 301 | 1.0 | 1.0 | 0.00 | 0.00 | 0.00 | 53 | 1007.9 |
| 20260506220514 | 77 | 220 | 1.0 | 2.0 | 0.00 | 0.00 | 0.00 | 53 | 1008.0 |
| 20260506215014 | 78 | 191 | 1.0 | 2.0 | 0.00 | 0.00 | 0.00 | 52 | 1008.2 |
| 20260506213515 | 77 | 191 | 0.0 | 1.0 | 0.00 | 0.00 | 0.00 | 53 | 1008.5 |
| 20260506212014 | 78 | 93 | 2.0 | 3.0 | 0.00 | 0.00 | 0.00 | 51 | 1008.4 |
| 20260506210514 | 78 | 239 | 1.0 | 1.0 | 0.00 | 0.00 | 0.00 | 52 | 1008.5 |
| 20260506205014 | 78 | 160 | 1.0 | 2.0 | 0.00 | 0.00 | 0.00 | 52 | 1008.8 |
| 20260506203514 | 77 | 141 | 2.0 | 5.0 | 0.00 | 0.00 | 0.00 | 50 | 1008.7 |
| 20260506202014 | 77 | 163 | 4.0 | 6.0 | 0.00 | 0.00 | 0.00 | 49 | 1009.0 |
| 20260506200514 | 76 | 170 | 2.0 | 3.0 | 0.00 | 0.00 | 0.00 | 51 | 1009.1 |
| 20260506195014 | 77 | 201 | 0.0 | 0.0 | 0.00 | 0.00 | 0.00 | 51 | 1009.2 |
| 20260506193514 | 75 | 172 | 2.0 | 2.0 | 0.00 | 0.00 | 0.00 | 53 | 1009.5 |
| 20260506192014 | 75 | 229 | 2.0 | 3.0 | 0.00 | 0.00 | 0.00 | 53 | 1009.7 |
| 20260506190515 | 74 | 239 | 0.0 | 0.0 | 0.00 | 0.00 | 0.00 | 55 | 1009.7 |
| 20260506185014 | 71 | 187 | 1.0 | 1.0 | 0.00 | 0.00 | 0.00 | 57 | 1009.9 |
| 20260506183514 | 71 | 204 | 0.0 | 0.0 | 0.00 | 0.00 | 0.00 | 60 | 1010.0 |
| 20260506182015 | 72 | 214 | 0.0 | 0.0 | 0.00 | 0.00 | 0.00 | 58 | 1010.0 |
| 20260506180514 | 69 | 185 | 2.0 | 2.0 | 0.00 | 0.00 | 0.00 | 60 | 1010.3 |
| 20260506175014 | 70 | 208 | 1.0 | 1.0 | 0.00 | 0.00 | 0.00 | 59 | 1010.6 |
| 20260506173514 | 69 | 156 | 3.0 | 3.0 | 0.00 | 0.00 | 0.00 | 60 | 1010.1 |
| 20260506172014 | 68 | 192 | 0.0 | 1.0 | 0.00 | 0.00 | 0.00 | 64 | 1010.3 |
| 20260506170514 | 65 | 198 | 0.0 | 0.0 | 0.00 | 0.00 | 0.00 | 67 | 1010.1 |
| 20260506165015 | 66 | 182 | 0.0 | 0.0 | 0.00 | 0.00 | 0.00 | 68 | 1010.3 |
| 20260506163514 | 66 | 171 | 3.0 | 3.0 | 0.00 | 0.00 | 0.00 | 67 | 1010.2 |
| 20260506162015 | 63 | 205 | 0.0 | 0.0 | 0.00 | 0.00 | 0.00 | 72 | 1010.4 |
| 20260506160514 | 62 | 178 | 2.0 | 2.0 | 0.00 | 0.00 | 0.00 | 74 | 1010.3 |
| 20260506155014 | 60 | 169 | 1.0 | 2.0 | 0.00 | 0.00 | 0.00 | 78 | 1010.5 |
| 20260506153514 | 59 | 201 | 1.0 | 1.0 | 0.00 | 0.00 | 0.00 | 81 | 1010.4 |
| 20260506152014 | 57 | 196 | 0.0 | 0.0 | 0.00 | 0.00 | 0.00 | 85 | 1010.5 |
| 20260506150514 | 57 | 183 | 1.0 | 1.0 | 0.00 | 0.00 | 0.00 | 86 | 1010.5 |
| 20260506145014 | 56 | 210 | 2.0 | 3.0 | 0.00 | 0.00 | 0.00 | 87 | 1010.2 |
| 20260506143514 | 55 | 207 | 0.0 | 0.0 | 0.00 | 0.00 | 0.00 | 89 | 1010.5 |
| 20260506142014 | 53 | 240 | 0.0 | 0.0 | 0.00 | 0.00 | 0.00 | 95 | 1010.4 |
| 20260506140514 | 51 | 220 | 0.0 | 0.0 | 0.00 | 0.00 | 0.00 | 96 | 1010.2 |
| 20260506135014 | 50 | 220 | 0.0 | 0.0 | 0.00 | 0.00 | 0.00 | 96 | 1010.1 |
| 20260506133514 | 50 | 220 | 0.0 | 0.0 | 0.00 | 0.00 | 0.00 | 96 | 1010.0 |
| 20260506132014 | 49 | 220 | 0.0 | 0.0 | 0.00 | 0.00 | 0.00 | 96 | 1010.0 |
| 20260506130515 | 50 | 220 | 0.0 | 0.0 | 0.00 | 0.00 | 0.00 | 96 | 1009.9 |
| 20260506125014 | 50 | 220 | 0.0 | 0.0 | 0.00 | 0.00 | 0.00 | 95 | 1009.6 |
| 20260506123514 | 50 | 220 | 0.0 | 0.0 | 0.00 | 0.00 | 0.00 | 95 | 1009.5 |
| 20260506122013 | 50 | 220 | 0.0 | 0.0 | 0.00 | 0.00 | 0.00 | 95 | 1009.2 |
| 20260506120515 | 50 | 220 | 0.0 | 0.0 | 0.00 | 0.00 | 0.00 | 94 | 1009.1 |
| 20260506115014 | 50 | 220 | 0.0 | 0.0 | 0.00 | 0.00 | 0.00 | 93 | 1009.1 |
| 20260506113513 | 50 | 220 | 0.0 | 0.0 | 0.00 | 0.00 | 0.00 | 93 | 1009.1 |
| 20260506112013 | 50 | 220 | 0.0 | 0.0 | 0.00 | 0.00 | 0.00 | 92 | 1009.0 |
| 20260506110514 | 50 | 220 | 0.0 | 0.0 | 0.00 | 0.00 | 0.00 | 90 | 1009.2 |
| 20260506105014 | 51 | 220 | 0.0 | 0.0 | 0.00 | 0.00 | 0.00 | 90 | 1009.3 |
| 20260506103514 | 51 | 220 | 0.0 | 0.0 | 0.00 | 0.00 | 0.00 | 90 | 1009.2 |
| 20260506102014 | 50 | 220 | 0.0 | 0.0 | 0.00 | 0.00 | 0.00 | 89 | 1009.3 |
| 20260506100514 | 50 | 220 | 0.0 | 0.0 | 0.00 | 0.00 | 0.00 | 88 | 1009.4 |
| 20260506095014 | 51 | 220 | 0.0 | 0.0 | 0.00 | 0.00 | 0.00 | 88 | 1009.3 |
| 20260506093514 | 51 | 220 | 0.0 | 0.0 | 0.00 | 0.00 | 0.00 | 87 | 1009.3 |
| 20260506092014 | 51 | 220 | 0.0 | 0.0 | 0.00 | 0.00 | 0.00 | 87 | 1009.2 |
| 20260506090515 | 51 | 220 | 0.0 | 0.0 | 0.00 | 0.00 | 0.00 | 86 | 1009.4 |
| 20260506085014 | 52 | 220 | 0.0 | 0.0 | 0.00 | 0.00 | 0.00 | 83 | 1009.6 |
| 20260506083517 | 53 | 220 | 0.0 | 0.0 | 0.00 | 0.00 | 0.00 | 84 | 1009.4 |
| 20260506082014 | 52 | 220 | 0.0 | 0.0 | 0.00 | 0.00 | 0.00 | 84 | 1009.6 |
| 20260506080514 | 53 | 220 | 0.0 | 0.0 | 0.00 | 0.00 | 0.00 | 84 | 1009.6 |
| 20260506073514 | 53 | 220 | 0.0 | 0.0 | 0.00 | 0.00 | 0.00 | 85 | 1009.9 |
| 20260506072014 | 53 | 220 | 0.0 | 0.0 | 0.00 | 0.00 | 0.00 | 84 | 1009.6 |
| 20260506070513 | 53 | 219 | 0.0 | 0.0 | 0.00 | 0.00 | 0.00 | 84 | 1009.6 |
| 20260506062013 | 53 | 217 | 0.0 | 0.0 | 0.00 | 0.00 | 0.00 | 83 | 1009.1 |
| 20260506060514 | 54 | 217 | 0.0 | 0.0 | 0.00 | 0.00 | 0.00 | 83 | 1009.0 |
| 20260506050514 | 55 | 216 | 0.0 | 0.0 | 0.00 | 0.00 | 0.00 | 81 | 1008.7 |
| 20260506045013 | 55 | 214 | 0.0 | 0.0 | 0.00 | 0.00 | 0.00 | 80 | 1008.4 |
| 20260506043514 | 55 | 209 | 0.0 | 0.0 | 0.00 | 0.00 | 0.00 | 79 | 1008.3 |
| 20260506042013 | 56 | 208 | 0.0 | 0.0 | 0.00 | 0.00 | 0.00 | 79 | 1008.0 |
| 20260506040514 | 56 | 209 | 0.0 | 0.0 | 0.00 | 0.00 | 0.00 | 77 | 1008.0 |
| 20260506035016 | 57 | 211 | 0.0 | 0.0 | 0.00 | 0.00 | 0.00 | 76 | 1007.9 |
| 20260506033514 | 57 | 204 | 0.0 | 0.0 | 0.00 | 0.00 | 0.00 | 75 | 1007.7 |
| 20260506032014 | 59 | 204 | 0.0 | 0.0 | 0.00 | 0.00 | 0.00 | 72 | 1007.3 |
| 20260506030514 | 60 | 204 | 0.0 | 0.0 | 0.00 | 0.00 | 0.00 | 70 | 1007.0 |
| 20260506025014 | 60 | 200 | 0.0 | 1.0 | 0.00 | 0.00 | 0.00 | 68 | 1006.8 |
| 20260506023514 | 60 | 214 | 0.0 | 0.0 | 0.00 | 0.00 | 0.00 | 66 | 1006.8 |
| 20260506022014 | 61 | 207 | 0.0 | 0.0 | 0.00 | 0.00 | 0.00 | 66 | 1006.4 |
| 20260506020514 | 61 | 204 | 0.0 | 0.0 | 0.00 | 0.00 | 0.00 | 66 | 1006.3 |
| 20260506015013 | 62 | 205 | 0.0 | 0.0 | 0.00 | 0.00 | 0.00 | 65 | 1006.5 |
| 20260506013514 | 63 | 200 | 0.0 | 0.0 | 0.00 | 0.00 | 0.00 | 64 | 1006.4 |
| 20260506012014 | 63 | 197 | 0.0 | 1.0 | 0.00 | 0.00 | 0.00 | 62 | 1006.2 |
| 20260506010514 | 63 | 208 | 0.0 | 0.0 | 0.00 | 0.00 | 0.00 | 63 | 1006.5 |
| 20260506005015 | 64 | 210 | 0.0 | 0.0 | 0.00 | 0.00 | 0.00 | 63 | 1006.2 |